sensor_id;sensor_type;location;lat;lon;timestamp;pressure;altitude;pressure_sealevel;temperature;humidity
79645;BME280;69117;47.148;18.954;2023-05-09T00:00:19;101413.56;;;6.47;51.04
79645;BME280;69117;47.148;18.954;2023-05-09T00:03:21;101414.53;;;6.46;64.00
79645;BME280;69117;47.148;18.954;2023-05-09T00:06:22;101417.69;;;6.37;52.40
79645;BME280;69117;47.148;18.954;2023-05-09T00:09:24;101412.53;;;6.35;58.29
79645;BME280;69117;47.148;18.954;2023-05-09T00:12:27;101403.16;;;6.31;55.87
79645;BME280;69117;47.148;18.954;2023-05-09T00:15:28;101415.03;;;6.23;46.62
79645;BME280;69117;47.148;18.954;2023-05-09T00:18:30;101405.44;;;6.07;47.65
79645;BME280;69117;47.148;18.954;2023-05-09T00:21:34;101401.91;;;6.08;38.43
79645;BME280;69117;47.148;18.954;2023-05-09T00:24:36;101395.31;;;6.01;28.79
79645;BME280;69117;47.148;18.954;2023-05-09T00:27:37;101394.13;;;5.91;46.94
79645;BME280;69117;47.148;18.954;2023-05-09T00:30:39;101383.53;;;5.92;49.94
79645;BME280;69117;47.148;18.954;2023-05-09T00:33:40;101389.41;;;5.97;47.69
79645;BME280;69117;47.148;18.954;2023-05-09T00:36:42;101380.34;;;6.03;62.99
79645;BME280;69117;47.148;18.954;2023-05-09T00:39:44;101370.09;;;5.99;62.87
79645;BME280;69117;47.148;18.954;2023-05-09T00:42:46;101376.28;;;5.97;64.03
79645;BME280;69117;47.148;18.954;2023-05-09T00:45:48;101379.94;;;5.95;62.18
79645;BME280;69117;47.148;18.954;2023-05-09T00:48:50;101379.38;;;6.04;65.09
79645;BME280;69117;47.148;18.954;2023-05-09T00:51:54;101380.69;;;5.97;65.84
79645;BME280;69117;47.148;18.954;2023-05-09T00:54:56;101371.34;;;6.07;66.09
79645;BME280;69117;47.148;18.954;2023-05-09T00:57:58;101385.13;;;6.11;67.06
79645;BME280;69117;47.148;18.954;2023-05-09T01:01:00;101378.66;;;6.02;67.17
79645;BME280;69117;47.148;18.954;2023-05-09T01:04:04;101370.03;;;6.00;61.22
79645;BME280;69117;47.148;18.954;2023-05-09T01:07:10;101380.69;;;5.97;64.47
79645;BME280;69117;47.148;18.954;2023-05-09T01:13:43;101381.53;;;5.97;61.93
79645;BME280;69117;47.148;18.954;2023-05-09T01:29:41;101344.56;;;6.02;66.91
79645;BME280;69117;47.148;18.954;2023-05-09T01:32:45;101364.00;;;5.98;62.26
79645;BME280;69117;47.148;18.954;2023-05-09T01:35:54;101365.34;;;5.89;59.38
79645;BME280;69117;47.148;18.954;2023-05-09T01:38:58;101360.09;;;5.89;43.40
79645;BME280;69117;47.148;18.954;2023-05-09T01:42:02;101342.88;;;5.85;56.88
79645;BME280;69117;47.148;18.954;2023-05-09T01:45:05;101349.50;;;5.77;54.31
79645;BME280;69117;47.148;18.954;2023-05-09T01:48:08;101350.19;;;5.64;47.17
79645;BME280;69117;47.148;18.954;2023-05-09T01:51:12;101358.25;;;5.61;30.71
79645;BME280;69117;47.148;18.954;2023-05-09T01:54:15;101340.94;;;5.43;0.00
79645;BME280;69117;47.148;18.954;2023-05-09T01:57:18;101344.16;;;5.32;0.00
79645;BME280;69117;47.148;18.954;2023-05-09T02:00:21;101357.59;;;5.42;0.00
79645;BME280;69117;47.148;18.954;2023-05-09T02:03:24;101339.69;;;5.34;0.00
79645;BME280;69117;47.148;18.954;2023-05-09T02:06:26;101335.72;;;5.43;0.00
79645;BME280;69117;47.148;18.954;2023-05-09T02:09:30;101351.66;;;5.38;0.00
79645;BME280;69117;47.148;18.954;2023-05-09T02:12:32;101344.16;;;5.32;0.00
79645;BME280;69117;47.148;18.954;2023-05-09T02:15:34;101342.16;;;5.21;0.00
79645;BME280;69117;47.148;18.954;2023-05-09T02:18:36;101336.91;;;5.21;0.00
79645;BME280;69117;47.148;18.954;2023-05-09T02:21:38;101329.41;;;5.15;0.00
79645;BME280;69117;47.148;18.954;2023-05-09T02:24:42;101335.38;;;5.01;0.00
79645;BME280;69117;47.148;18.954;2023-05-09T02:27:45;101328.19;;;5.05;0.00
79645;BME280;69117;47.148;18.954;2023-05-09T02:30:48;101338.34;;;5.11;0.00
79645;BME280;69117;47.148;18.954;2023-05-09T02:33:51;101332.44;;;5.08;0.00
79645;BME280;69117;47.148;18.954;2023-05-09T02:36:55;101329.75;;;5.09;0.00
79645;BME280;69117;47.148;18.954;2023-05-09T02:39:57;101323.56;;;5.10;0.00
79645;BME280;69117;47.148;18.954;2023-05-09T02:42:58;101338.94;;;5.00;0.00
79645;BME280;69117;47.148;18.954;2023-05-09T02:46:00;101343.69;;;4.94;0.00
79645;BME280;69117;47.148;18.954;2023-05-09T02:49:02;101334.03;;;4.94;0.00
79645;BME280;69117;47.148;18.954;2023-05-09T02:52:04;101315.63;;;4.80;0.00
79645;BME280;69117;47.148;18.954;2023-05-09T02:55:06;101314.94;;;4.76;0.00
79645;BME280;69117;47.148;18.954;2023-05-09T02:58:07;101332.53;;;4.90;0.00
79645;BME280;69117;47.148;18.954;2023-05-09T03:01:15;101331.75;;;4.88;0.00
79645;BME280;69117;47.148;18.954;2023-05-09T03:04:17;101327.94;;;4.78;0.00
79645;BME280;69117;47.148;18.954;2023-05-09T03:07:18;101327.03;;;4.79;0.00
79645;BME280;69117;47.148;18.954;2023-05-09T03:10:20;101328.09;;;4.75;0.00
79645;BME280;69117;47.148;18.954;2023-05-09T03:13:21;101313.06;;;4.63;0.00
79645;BME280;69117;47.148;18.954;2023-05-09T03:16:23;101315.94;;;4.58;0.00
79645;BME280;69117;47.148;18.954;2023-05-09T03:19:25;101327.34;;;4.57;0.00
79645;BME280;69117;47.148;18.954;2023-05-09T03:22:26;101324.47;;;4.62;0.00
79645;BME280;69117;47.148;18.954;2023-05-09T03:25:28;101309.03;;;4.57;0.00
79645;BME280;69117;47.148;18.954;2023-05-09T03:28:30;101333.66;;;4.69;0.00
79645;BME280;69117;47.148;18.954;2023-05-09T03:31:31;101321.44;;;4.69;0.00
79645;BME280;69117;47.148;18.954;2023-05-09T03:34:34;101341.78;;;4.80;0.00
79645;BME280;69117;47.148;18.954;2023-05-09T03:37:35;101342.13;;;4.90;0.00
79645;BME280;69117;47.148;18.954;2023-05-09T03:40:37;101347.63;;;5.01;0.00
79645;BME280;69117;47.148;18.954;2023-05-09T03:43:39;101339.78;;;5.17;0.00
79645;BME280;69117;47.148;18.954;2023-05-09T03:46:40;101341.31;;;5.21;0.00
79645;BME280;69117;47.148;18.954;2023-05-09T03:49:42;101337.25;;;5.31;0.00
79645;BME280;69117;47.148;18.954;2023-05-09T03:52:44;101345.06;;;5.47;0.00
79645;BME280;69117;47.148;18.954;2023-05-09T03:55:45;101347.44;;;5.51;0.00
79645;BME280;69117;47.148;18.954;2023-05-09T03:58:47;101347.69;;;5.63;0.00
79645;BME280;69117;47.148;18.954;2023-05-09T04:01:48;101335.81;;;5.71;0.00
79645;BME280;69117;47.148;18.954;2023-05-09T04:04:50;101338.28;;;5.89;0.00
79645;BME280;69117;47.148;18.954;2023-05-09T04:07:53;101345.03;;;6.09;0.00
79645;BME280;69117;47.148;18.954;2023-05-09T04:10:54;101339.59;;;6.26;0.00
79645;BME280;69117;47.148;18.954;2023-05-09T04:13:56;101338.78;;;6.40;0.00
79645;BME280;69117;47.148;18.954;2023-05-09T04:16:57;101332.78;;;6.52;0.00
79645;BME280;69117;47.148;18.954;2023-05-09T04:19:59;101331.56;;;6.72;0.00
79645;BME280;69117;47.148;18.954;2023-05-09T04:23:01;101343.34;;;6.94;0.00
79645;BME280;69117;47.148;18.954;2023-05-09T04:26:03;101338.81;;;7.10;0.00
79645;BME280;69117;47.148;18.954;2023-05-09T04:29:05;101346.56;;;7.26;0.00
79645;BME280;69117;47.148;18.954;2023-05-09T04:32:06;101348.09;;;7.43;0.00
79645;BME280;69117;47.148;18.954;2023-05-09T04:35:08;101353.59;;;7.52;0.00
79645;BME280;69117;47.148;18.954;2023-05-09T04:38:10;101340.38;;;7.54;0.00
79645;BME280;69117;47.148;18.954;2023-05-09T04:41:12;101355.47;;;7.77;0.00
79645;BME280;69117;47.148;18.954;2023-05-09T04:44:15;101350.69;;;7.97;0.00
79645;BME280;69117;47.148;18.954;2023-05-09T04:47:17;101344.47;;;8.11;0.00
79645;BME280;69117;47.148;18.954;2023-05-09T04:50:19;101344.91;;;8.30;0.00
79645;BME280;69117;47.148;18.954;2023-05-09T04:53:20;101344.84;;;8.57;0.00
79645;BME280;69117;47.148;18.954;2023-05-09T04:56:22;101349.03;;;8.73;0.00
79645;BME280;69117;47.148;18.954;2023-05-09T04:59:24;101342.09;;;8.71;0.00
79645;BME280;69117;47.148;18.954;2023-05-09T05:02:25;101341.41;;;8.93;0.00
79645;BME280;69117;47.148;18.954;2023-05-09T05:05:27;101342.59;;;9.13;0.00
79645;BME280;69117;47.148;18.954;2023-05-09T05:08:29;101329.53;;;9.12;0.00
79645;BME280;69117;47.148;18.954;2023-05-09T05:11:31;101345.44;;;9.47;0.00
79645;BME280;69117;47.148;18.954;2023-05-09T05:14:32;101349.69;;;9.61;0.00
79645;BME280;69117;47.148;18.954;2023-05-09T05:17:34;101345.66;;;9.79;0.00
79645;BME280;69117;47.148;18.954;2023-05-09T05:20:35;101354.19;;;9.83;0.00
79645;BME280;69117;47.148;18.954;2023-05-09T05:23:37;101342.16;;;10.03;0.00
79645;BME280;69117;47.148;18.954;2023-05-09T05:26:39;101352.97;;;10.22;0.00
79645;BME280;69117;47.148;18.954;2023-05-09T05:29:41;101351.84;;;10.38;0.00
79645;BME280;69117;47.148;18.954;2023-05-09T05:32:42;101336.72;;;10.40;65.66
79645;BME280;69117;47.148;18.954;2023-05-09T05:35:44;101334.34;;;10.48;64.82
79645;BME280;69117;47.148;18.954;2023-05-09T05:38:46;101346.09;;;10.55;64.08
79645;BME280;69117;47.148;18.954;2023-05-09T05:41:47;101343.69;;;10.74;64.27
79645;BME280;69117;47.148;18.954;2023-05-09T05:44:49;101345.72;;;10.93;63.66
79645;BME280;69117;47.148;18.954;2023-05-09T05:47:50;101341.75;;;10.99;63.05
79645;BME280;69117;47.148;18.954;2023-05-09T05:50:52;101355.56;;;11.14;63.30
79645;BME280;69117;47.148;18.954;2023-05-09T05:53:54;101349.38;;;11.24;62.58
79645;BME280;69117;47.148;18.954;2023-05-09T05:56:56;101348.53;;;11.35;61.54
79645;BME280;69117;47.148;18.954;2023-05-09T05:59:57;101334.50;;;11.23;61.17
79645;BME280;69117;47.148;18.954;2023-05-09T06:02:59;101344.06;;;11.36;60.70
79645;BME280;69117;47.148;18.954;2023-05-09T06:06:01;101347.09;;;11.63;59.18
79645;BME280;69117;47.148;18.954;2023-05-09T06:09:02;101352.22;;;11.76;59.16
79645;BME280;69117;47.148;18.954;2023-05-09T06:12:04;101350.44;;;11.98;59.59
79645;BME280;69117;47.148;18.954;2023-05-09T06:15:07;101352.47;;;12.05;58.42
79645;BME280;69117;47.148;18.954;2023-05-09T06:18:08;101350.34;;;12.20;58.08
79645;BME280;69117;47.148;18.954;2023-05-09T06:21:10;101338.75;;;12.21;57.07
79645;BME280;69117;47.148;18.954;2023-05-09T06:24:12;101351.94;;;12.32;56.75
79645;BME280;69117;47.148;18.954;2023-05-09T06:27:32;101346.84;;;12.81;57.45
79645;BME280;69117;47.148;18.954;2023-05-09T06:30:33;101327.34;;;12.92;56.38
79645;BME280;69117;47.148;18.954;2023-05-09T06:33:35;101338.13;;;13.10;56.71
79645;BME280;69117;47.148;18.954;2023-05-09T06:36:37;101323.31;;;12.97;55.70
79645;BME280;69117;47.148;18.954;2023-05-09T06:39:38;101331.16;;;13.18;54.77
79645;BME280;69117;47.148;18.954;2023-05-09T06:42:40;101341.53;;;13.31;55.15
79645;BME280;69117;47.148;18.954;2023-05-09T06:45:42;101335.97;;;13.34;54.75
79645;BME280;69117;47.148;18.954;2023-05-09T06:48:43;101336.28;;;13.41;54.04
79645;BME280;69117;47.148;18.954;2023-05-09T06:51:45;101319.09;;;13.35;54.00
79645;BME280;69117;47.148;18.954;2023-05-09T06:54:46;101335.16;;;13.63;53.88
79645;BME280;69117;47.148;18.954;2023-05-09T06:57:48;101335.69;;;13.76;54.00
79645;BME280;69117;47.148;18.954;2023-05-09T07:00:50;101329.00;;;13.82;54.15
79645;BME280;69117;47.148;18.954;2023-05-09T07:03:52;101331.72;;;14.19;52.27
79645;BME280;69117;47.148;18.954;2023-05-09T07:06:53;101308.38;;;14.23;52.96
79645;BME280;69117;47.148;18.954;2023-05-09T07:09:55;101313.19;;;14.47;52.11
79645;BME280;69117;47.148;18.954;2023-05-09T07:13:11;101321.84;;;14.58;52.45
79645;BME280;69117;47.148;18.954;2023-05-09T07:16:14;101312.22;;;14.38;52.16
79645;BME280;69117;47.148;18.954;2023-05-09T07:19:16;101310.63;;;14.64;52.39
79645;BME280;69117;47.148;18.954;2023-05-09T07:22:17;101304.13;;;14.77;50.98
79645;BME280;69117;47.148;18.954;2023-05-09T07:25:19;101305.38;;;15.00;50.26
79645;BME280;69117;47.148;18.954;2023-05-09T07:28:21;101298.59;;;15.06;49.63
79645;BME280;69117;47.148;18.954;2023-05-09T07:31:22;101301.47;;;15.40;50.00
79645;BME280;69117;47.148;18.954;2023-05-09T07:34:24;101302.66;;;15.46;49.74
79645;BME280;69117;47.148;18.954;2023-05-09T07:37:26;101297.50;;;15.44;49.18
79645;BME280;69117;47.148;18.954;2023-05-09T07:40:27;101298.47;;;15.61;49.89
79645;BME280;69117;47.148;18.954;2023-05-09T07:43:29;101288.19;;;15.84;48.44
79645;BME280;69117;47.148;18.954;2023-05-09T07:46:30;101295.06;;;15.69;47.02
79645;BME280;69117;47.148;18.954;2023-05-09T07:49:32;101291.84;;;15.65;48.21
79645;BME280;69117;47.148;18.954;2023-05-09T07:52:34;101284.16;;;16.06;46.79
79645;BME280;69117;47.148;18.954;2023-05-09T07:55:35;101284.72;;;16.10;47.54
79645;BME280;69117;47.148;18.954;2023-05-09T07:58:37;101259.16;;;15.99;46.30
79645;BME280;69117;47.148;18.954;2023-05-09T08:01:38;101281.56;;;16.48;46.37
79645;BME280;69117;47.148;18.954;2023-05-09T08:04:40;101271.56;;;16.51;46.13
79645;BME280;69117;47.148;18.954;2023-05-09T08:07:42;101270.09;;;16.99;44.93
79645;BME280;69117;47.148;18.954;2023-05-09T08:10:44;101259.91;;;16.52;46.56
79645;BME280;69117;47.148;18.954;2023-05-09T08:13:46;101256.22;;;16.87;46.72
79645;BME280;69117;47.148;18.954;2023-05-09T08:16:48;101254.53;;;16.94;44.66
79645;BME280;69117;47.148;18.954;2023-05-09T08:19:50;101249.56;;;16.99;46.27
79645;BME280;69117;47.148;18.954;2023-05-09T08:22:51;101259.28;;;17.33;44.02
79645;BME280;69117;47.148;18.954;2023-05-09T08:25:53;101243.69;;;16.87;42.89
79645;BME280;69117;47.148;18.954;2023-05-09T08:28:55;101257.53;;;16.83;44.98
79645;BME280;69117;47.148;18.954;2023-05-09T08:31:56;101250.44;;;17.49;44.70
79645;BME280;69117;47.148;18.954;2023-05-09T08:34:58;101262.28;;;17.22;43.61
79645;BME280;69117;47.148;18.954;2023-05-09T08:37:59;101245.72;;;17.75;43.10
79645;BME280;69117;47.148;18.954;2023-05-09T08:41:01;101260.03;;;18.15;42.08
79645;BME280;69117;47.148;18.954;2023-05-09T08:44:03;101235.78;;;18.25;42.53
79645;BME280;69117;47.148;18.954;2023-05-09T08:47:05;101232.44;;;18.62;41.65
79645;BME280;69117;47.148;18.954;2023-05-09T08:50:08;101233.94;;;18.25;41.68
79645;BME280;69117;47.148;18.954;2023-05-09T08:53:12;101235.34;;;18.52;41.01
79645;BME280;69117;47.148;18.954;2023-05-09T08:56:14;101229.25;;;18.98;40.97
79645;BME280;69117;47.148;18.954;2023-05-09T08:59:17;101234.00;;;19.11;40.22
79645;BME280;69117;47.148;18.954;2023-05-09T09:02:20;101237.47;;;18.57;41.08
79645;BME280;69117;47.148;18.954;2023-05-09T09:05:22;101233.75;;;19.20;41.11
79645;BME280;69117;47.148;18.954;2023-05-09T09:08:41;101234.78;;;18.96;39.92
79645;BME280;69117;47.148;18.954;2023-05-09T09:11:44;101230.56;;;18.79;40.46
79645;BME280;69117;47.148;18.954;2023-05-09T09:14:49;101222.41;;;19.18;38.58
79645;BME280;69117;47.148;18.954;2023-05-09T09:17:54;101215.41;;;19.32;38.67
79645;BME280;69117;47.148;18.954;2023-05-09T09:21:04;101202.88;;;19.85;37.91
79645;BME280;69117;47.148;18.954;2023-05-09T09:24:06;101211.88;;;19.55;39.53
79645;BME280;69117;47.148;18.954;2023-05-09T09:27:08;101215.09;;;19.50;38.09
79645;BME280;69117;47.148;18.954;2023-05-09T09:30:10;101210.38;;;19.90;37.26
79645;BME280;69117;47.148;18.954;2023-05-09T09:33:23;101208.03;;;20.31;37.76
79645;BME280;69117;47.148;18.954;2023-05-09T09:36:31;101207.63;;;19.60;37.53
79645;BME280;69117;47.148;18.954;2023-05-09T09:39:33;101209.25;;;19.84;36.75
79645;BME280;69117;47.148;18.954;2023-05-09T09:42:45;101204.94;;;19.98;36.95
79645;BME280;69117;47.148;18.954;2023-05-09T09:45:49;101207.06;;;20.69;35.78
79645;BME280;69117;47.148;18.954;2023-05-09T09:48:52;101198.84;;;21.13;34.59
79645;BME280;69117;47.148;18.954;2023-05-09T09:51:57;101196.03;;;21.21;33.26
79645;BME280;69117;47.148;18.954;2023-05-09T09:54:59;101202.88;;;21.80;34.11
79645;BME280;69117;47.148;18.954;2023-05-09T09:58:00;101185.50;;;21.76;34.31
79645;BME280;69117;47.148;18.954;2023-05-09T10:01:06;101183.19;;;22.14;33.43
79645;BME280;69117;47.148;18.954;2023-05-09T10:04:07;101175.16;;;21.80;33.97
79645;BME280;69117;47.148;18.954;2023-05-09T10:07:18;101175.66;;;20.69;34.47
79645;BME280;69117;47.148;18.954;2023-05-09T10:10:25;101179.44;;;21.39;33.35
79645;BME280;69117;47.148;18.954;2023-05-09T10:13:27;101179.19;;;21.62;34.40
79645;BME280;69117;47.148;18.954;2023-05-09T10:16:29;101173.50;;;20.58;34.71
79645;BME280;69117;47.148;18.954;2023-05-09T10:19:45;101176.81;;;21.46;35.69
79645;BME280;69117;47.148;18.954;2023-05-09T10:22:49;101167.97;;;20.15;36.20
79645;BME280;69117;47.148;18.954;2023-05-09T10:29:18;101159.19;;;22.13;32.30
79645;BME280;69117;47.148;18.954;2023-05-09T10:35:57;101149.69;;;20.04;35.18
79645;BME280;69117;47.148;18.954;2023-05-09T10:39:01;101171.22;;;20.98;34.44
79645;BME280;69117;47.148;18.954;2023-05-09T10:42:03;101163.44;;;22.35;34.22
79645;BME280;69117;47.148;18.954;2023-05-09T10:45:06;101176.25;;;23.54;32.21
79645;BME280;69117;47.148;18.954;2023-05-09T10:48:10;101167.34;;;22.26;32.49
79645;BME280;69117;47.148;18.954;2023-05-09T10:51:12;101164.47;;;22.28;33.67
79645;BME280;69117;47.148;18.954;2023-05-09T10:54:25;101156.00;;;22.44;33.00
79645;BME280;69117;47.148;18.954;2023-05-09T10:57:31;101156.81;;;22.45;33.04
79645;BME280;69117;47.148;18.954;2023-05-09T11:00:33;101162.94;;;23.60;29.93
79645;BME280;69117;47.148;18.954;2023-05-09T11:03:54;101161.47;;;23.84;29.12
79645;BME280;69117;47.148;18.954;2023-05-09T11:06:58;101154.75;;;22.33;32.44
79645;BME280;69117;47.148;18.954;2023-05-09T11:13:09;101142.25;;;21.43;33.56
79645;BME280;69117;47.148;18.954;2023-05-09T11:16:11;101151.63;;;21.32;35.05
79645;BME280;69117;47.148;18.954;2023-05-09T11:19:32;101143.59;;;20.61;36.09
79645;BME280;69117;47.148;18.954;2023-05-09T11:22:39;101148.06;;;19.88;38.25
79645;BME280;69117;47.148;18.954;2023-05-09T11:25:44;101141.28;;;20.07;38.20
79645;BME280;69117;47.148;18.954;2023-05-09T11:28:51;101136.72;;;20.58;37.90
79645;BME280;69117;47.148;18.954;2023-05-09T11:32:06;101136.97;;;19.76;38.59
79645;BME280;69117;47.148;18.954;2023-05-09T11:38:20;101125.16;;;21.29;35.49
79645;BME280;69117;47.148;18.954;2023-05-09T11:41:21;101102.59;;;24.12;30.37
79645;BME280;69117;47.148;18.954;2023-05-09T11:44:23;101111.81;;;24.30;29.14
79645;BME280;69117;47.148;18.954;2023-05-09T11:47:25;101100.38;;;25.23;30.04
79645;BME280;69117;47.148;18.954;2023-05-09T11:50:29;101104.34;;;24.32;31.49
79645;BME280;69117;47.148;18.954;2023-05-09T11:53:30;101115.09;;;21.38;33.95
79645;BME280;69117;47.148;18.954;2023-05-09T11:56:38;101100.03;;;22.33;32.92
79645;BME280;69117;47.148;18.954;2023-05-09T11:59:41;101105.88;;;23.69;30.76
79645;BME280;69117;47.148;18.954;2023-05-09T12:02:43;101099.75;;;24.32;28.28
79645;BME280;69117;47.148;18.954;2023-05-09T12:05:47;101093.16;;;24.66;29.80
79645;BME280;69117;47.148;18.954;2023-05-09T12:08:49;101085.78;;;24.10;30.88
79645;BME280;69117;47.148;18.954;2023-05-09T12:11:51;101091.41;;;22.71;32.54
79645;BME280;69117;47.148;18.954;2023-05-09T12:14:53;101090.19;;;23.33;30.03
79645;BME280;69117;47.148;18.954;2023-05-09T12:18:03;101087.03;;;25.28;29.01
79645;BME280;69117;47.148;18.954;2023-05-09T12:21:05;101074.78;;;26.41;27.37
79645;BME280;69117;47.148;18.954;2023-05-09T12:24:07;101073.50;;;25.83;28.19
79645;BME280;69117;47.148;18.954;2023-05-09T12:27:09;101072.16;;;23.14;31.81
79645;BME280;69117;47.148;18.954;2023-05-09T12:30:11;101061.56;;;22.46;34.13
79645;BME280;69117;47.148;18.954;2023-05-09T12:33:14;101058.66;;;21.38;36.04
79645;BME280;69117;47.148;18.954;2023-05-09T12:36:16;101054.72;;;19.98;37.42
79645;BME280;69117;47.148;18.954;2023-05-09T12:39:20;101064.47;;;22.57;34.41
79645;BME280;69117;47.148;18.954;2023-05-09T12:42:26;101063.13;;;21.59;36.39
79645;BME280;69117;47.148;18.954;2023-05-09T12:45:31;101062.34;;;20.80;37.44
79645;BME280;69117;47.148;18.954;2023-05-09T12:48:36;101063.03;;;20.61;38.64
79645;BME280;69117;47.148;18.954;2023-05-09T12:51:47;101043.16;;;20.55;38.63
79645;BME280;69117;47.148;18.954;2023-05-09T12:54:51;101048.00;;;21.58;38.30
79645;BME280;69117;47.148;18.954;2023-05-09T12:57:58;101031.63;;;23.47;35.04
79645;BME280;69117;47.148;18.954;2023-05-09T13:01:02;101034.75;;;24.34;31.63
79645;BME280;69117;47.148;18.954;2023-05-09T13:04:06;101038.13;;;26.26;30.13
79645;BME280;69117;47.148;18.954;2023-05-09T13:07:08;101034.44;;;26.98;27.90
79645;BME280;69117;47.148;18.954;2023-05-09T13:10:15;101028.88;;;24.94;30.94
79645;BME280;69117;47.148;18.954;2023-05-09T13:13:20;101036.66;;;24.58;32.38
79645;BME280;69117;47.148;18.954;2023-05-09T13:16:25;101030.06;;;23.77;33.77
79645;BME280;69117;47.148;18.954;2023-05-09T13:19:27;101027.59;;;22.98;35.79
79645;BME280;69117;47.148;18.954;2023-05-09T13:22:28;101026.63;;;21.91;37.97
79645;BME280;69117;47.148;18.954;2023-05-09T13:25:30;101020.50;;;20.93;37.22
79645;BME280;69117;47.148;18.954;2023-05-09T13:28:32;101024.59;;;20.61;39.32
79645;BME280;69117;47.148;18.954;2023-05-09T13:31:33;101019.00;;;22.14;35.06
79645;BME280;69117;47.148;18.954;2023-05-09T13:34:35;101018.66;;;22.51;34.95
79645;BME280;69117;47.148;18.954;2023-05-09T13:37:37;101015.25;;;24.25;32.97
79645;BME280;69117;47.148;18.954;2023-05-09T13:40:39;101004.59;;;25.79;29.59
79645;BME280;69117;47.148;18.954;2023-05-09T13:43:40;101005.88;;;23.96;31.77
79645;BME280;69117;47.148;18.954;2023-05-09T13:46:44;101010.19;;;22.67;34.63
79645;BME280;69117;47.148;18.954;2023-05-09T13:49:46;101003.50;;;21.48;36.26
79645;BME280;69117;47.148;18.954;2023-05-09T13:52:48;100993.16;;;22.20;37.17
79645;BME280;69117;47.148;18.954;2023-05-09T13:55:50;100979.84;;;24.08;33.84
79645;BME280;69117;47.148;18.954;2023-05-09T13:58:51;100962.69;;;24.96;31.00
79645;BME280;69117;47.148;18.954;2023-05-09T14:01:53;100956.28;;;24.22;31.70
79645;BME280;69117;47.148;18.954;2023-05-09T14:04:57;100967.91;;;26.37;30.53
79645;BME280;69117;47.148;18.954;2023-05-09T14:07:59;100969.59;;;24.74;32.55
79645;BME280;69117;47.148;18.954;2023-05-09T14:11:02;100963.91;;;23.10;34.68
79645;BME280;69117;47.148;18.954;2023-05-09T14:14:03;100963.28;;;21.82;35.97
79645;BME280;69117;47.148;18.954;2023-05-09T14:17:05;100960.53;;;20.36;39.64
79645;BME280;69117;47.148;18.954;2023-05-09T14:20:07;100961.97;;;20.10;40.00
79645;BME280;69117;47.148;18.954;2023-05-09T14:23:09;100969.81;;;20.55;39.75
79645;BME280;69117;47.148;18.954;2023-05-09T14:26:10;100954.22;;;22.29;35.36
79645;BME280;69117;47.148;18.954;2023-05-09T14:29:12;100961.88;;;21.03;38.11
79645;BME280;69117;47.148;18.954;2023-05-09T14:32:14;100952.75;;;20.69;37.93
79645;BME280;69117;47.148;18.954;2023-05-09T14:35:15;100953.31;;;20.15;40.07
79645;BME280;69117;47.148;18.954;2023-05-09T14:38:17;100963.66;;;19.75;40.83
79645;BME280;69117;47.148;18.954;2023-05-09T14:41:19;100961.38;;;20.36;40.28
79645;BME280;69117;47.148;18.954;2023-05-09T14:44:21;100951.19;;;23.30;35.17
79645;BME280;69117;47.148;18.954;2023-05-09T14:47:25;100937.47;;;23.32;33.86
79645;BME280;69117;47.148;18.954;2023-05-09T14:50:27;100946.88;;;24.31;33.27
79645;BME280;69117;47.148;18.954;2023-05-09T14:53:28;100951.47;;;22.03;36.11
79645;BME280;69117;47.148;18.954;2023-05-09T14:56:30;100947.97;;;21.34;39.32
79645;BME280;69117;47.148;18.954;2023-05-09T14:59:32;100949.16;;;21.18;39.50
79645;BME280;69117;47.148;18.954;2023-05-09T15:02:38;100951.41;;;19.87;42.13
79645;BME280;69117;47.148;18.954;2023-05-09T15:05:40;100939.91;;;19.72;41.75
79645;BME280;69117;47.148;18.954;2023-05-09T15:08:42;100937.41;;;19.19;42.25
79645;BME280;69117;47.148;18.954;2023-05-09T15:11:43;100938.41;;;19.33;42.49
79645;BME280;69117;47.148;18.954;2023-05-09T15:14:49;100937.41;;;18.75;43.07
79645;BME280;69117;47.148;18.954;2023-05-09T15:17:54;100944.44;;;19.06;43.97
79645;BME280;69117;47.148;18.954;2023-05-09T15:20:55;100935.31;;;18.85;44.58
79645;BME280;69117;47.148;18.954;2023-05-09T15:23:57;100926.28;;;18.63;44.22
79645;BME280;69117;47.148;18.954;2023-05-09T15:26:59;100914.84;;;18.69;45.35
79645;BME280;69117;47.148;18.954;2023-05-09T15:30:01;100919.63;;;18.82;45.17
79645;BME280;69117;47.148;18.954;2023-05-09T15:33:03;100907.75;;;19.57;41.23
79645;BME280;69117;47.148;18.954;2023-05-09T15:36:05;100914.25;;;22.53;35.73
79645;BME280;69117;47.148;18.954;2023-05-09T15:39:07;100900.66;;;24.64;31.98
79645;BME280;69117;47.148;18.954;2023-05-09T15:42:09;100902.38;;;24.96;31.39
79645;BME280;69117;47.148;18.954;2023-05-09T15:45:12;100901.00;;;25.42;30.29
79645;BME280;69117;47.148;18.954;2023-05-09T15:48:14;100907.59;;;26.30;29.61
79645;BME280;69117;47.148;18.954;2023-05-09T15:51:16;100901.72;;;25.79;29.30
79645;BME280;69117;47.148;18.954;2023-05-09T15:54:18;100893.56;;;25.37;28.85
79645;BME280;69117;47.148;18.954;2023-05-09T15:57:20;100893.44;;;26.16;28.13
79645;BME280;69117;47.148;18.954;2023-05-09T16:00:22;100876.56;;;25.18;29.34
79645;BME280;69117;47.148;18.954;2023-05-09T16:03:24;100882.47;;;24.53;30.45
79645;BME280;69117;47.148;18.954;2023-05-09T16:06:26;100879.63;;;25.22;29.38
79645;BME280;69117;47.148;18.954;2023-05-09T16:09:28;100877.63;;;25.89;29.13
79645;BME280;69117;47.148;18.954;2023-05-09T16:12:30;100878.38;;;27.19;27.64
79645;BME280;69117;47.148;18.954;2023-05-09T16:15:33;100873.50;;;25.15;29.98
79645;BME280;69117;47.148;18.954;2023-05-09T16:18:35;100877.84;;;23.08;33.95